Terminal Aerodrome Forecast
Issued by NWS

Home | Current Version | Previous Version | Text Only | Print | Product List | Glossary On
Versions: 1 2 3 4 5 6 7 8 9 10 11 12
000
FTUS46 KPDT 292320
TAFRDM
TAF
KRDM 292320Z 3000/3024 31014G22KT P6SM -SHRA BKN040
     FM300800 31010KT P6SM BKN050
     FM301700 31010G20KT P6SM SCT050=

USA.gov is the U.S. government's official web portal to all federal, state and local government web resources and services.